sensor_id;sensor_type;location;lat;lon;timestamp;temperature;humidity
64198;SHT31;50512;53.666;9.700;2022-08-03T00:02:07;20.37;82.24
64198;SHT31;50512;53.666;9.700;2022-08-03T00:04:33;20.27;82.79
64198;SHT31;50512;53.666;9.700;2022-08-03T00:06:58;20.21;83.07
64198;SHT31;50512;53.666;9.700;2022-08-03T00:09:24;20.10;83.67
64198;SHT31;50512;53.666;9.700;2022-08-03T00:11:49;20.05;83.42
64198;SHT31;50512;53.666;9.700;2022-08-03T00:14:15;19.99;83.42
64198;SHT31;50512;53.666;9.700;2022-08-03T00:16:42;20.01;83.52
64198;SHT31;50512;53.666;9.700;2022-08-03T00:19:07;19.99;83.34
64198;SHT31;50512;53.666;9.700;2022-08-03T00:21:33;19.93;83.21
64198;SHT31;50512;53.666;9.700;2022-08-03T00:23:58;19.89;83.39
64198;SHT31;50512;53.666;9.700;2022-08-03T00:26:23;19.82;83.63
64198;SHT31;50512;53.666;9.700;2022-08-03T00:28:49;19.75;83.96
64198;SHT31;50512;53.666;9.700;2022-08-03T00:31:15;19.71;84.00
64198;SHT31;50512;53.666;9.700;2022-08-03T00:33:42;19.66;84.55
64198;SHT31;50512;53.666;9.700;2022-08-03T00:36:07;19.55;84.64
64198;SHT31;50512;53.666;9.700;2022-08-03T00:38:33;19.51;84.88
64198;SHT31;50512;53.666;9.700;2022-08-03T00:40:58;19.48;84.60
64198;SHT31;50512;53.666;9.700;2022-08-03T00:43:25;19.50;84.64
64198;SHT31;50512;53.666;9.700;2022-08-03T00:45:50;19.45;84.14
64198;SHT31;50512;53.666;9.700;2022-08-03T00:48:16;19.41;84.65
64198;SHT31;50512;53.666;9.700;2022-08-03T00:50:42;19.47;83.83
64198;SHT31;50512;53.666;9.700;2022-08-03T00:53:10;19.38;83.99
64198;SHT31;50512;53.666;9.700;2022-08-03T00:55:36;19.36;84.31
64198;SHT31;50512;53.666;9.700;2022-08-03T00:58:02;19.34;83.59
64198;SHT31;50512;53.666;9.700;2022-08-03T01:00:27;19.36;83.00
64198;SHT31;50512;53.666;9.700;2022-08-03T01:02:53;19.32;83.86
64198;SHT31;50512;53.666;9.700;2022-08-03T01:05:19;19.34;83.43
64198;SHT31;50512;53.666;9.700;2022-08-03T01:08:00;19.38;83.16
64198;SHT31;50512;53.666;9.700;2022-08-03T01:10:35;19.41;83.13
64198;SHT31;50512;53.666;9.700;2022-08-03T01:13:07;19.38;82.84
64198;SHT31;50512;53.666;9.700;2022-08-03T01:15:42;19.35;83.08
64198;SHT31;50512;53.666;9.700;2022-08-03T01:18:13;19.31;83.06
64198;SHT31;50512;53.666;9.700;2022-08-03T01:20:45;19.21;83.02
64198;SHT31;50512;53.666;9.700;2022-08-03T01:23:33;19.20;83.24
64198;SHT31;50512;53.666;9.700;2022-08-03T01:26:08;19.14;83.14
64198;SHT31;50512;53.666;9.700;2022-08-03T01:28:48;19.20;83.14
64198;SHT31;50512;53.666;9.700;2022-08-03T01:31:21;19.16;83.21
64198;SHT31;50512;53.666;9.700;2022-08-03T01:33:50;19.17;83.40
64198;SHT31;50512;53.666;9.700;2022-08-03T01:36:22;19.11;83.41
64198;SHT31;50512;53.666;9.700;2022-08-03T01:38:52;19.08;83.85
64198;SHT31;50512;53.666;9.700;2022-08-03T01:41:20;19.10;83.71
64198;SHT31;50512;53.666;9.700;2022-08-03T01:43:48;19.16;83.44
64198;SHT31;50512;53.666;9.700;2022-08-03T01:46:16;19.13;83.32
64198;SHT31;50512;53.666;9.700;2022-08-03T01:48:43;19.14;83.17
64198;SHT31;50512;53.666;9.700;2022-08-03T01:51:11;19.14;83.07
64198;SHT31;50512;53.666;9.700;2022-08-03T01:53:39;19.16;83.09
64198;SHT31;50512;53.666;9.700;2022-08-03T01:56:05;19.17;83.05
64198;SHT31;50512;53.666;9.700;2022-08-03T01:58:33;19.16;82.62
64198;SHT31;50512;53.666;9.700;2022-08-03T02:01:00;19.16;82.89
64198;SHT31;50512;53.666;9.700;2022-08-03T02:03:29;19.14;82.98
64198;SHT31;50512;53.666;9.700;2022-08-03T02:05:57;19.14;82.83
64198;SHT31;50512;53.666;9.700;2022-08-03T02:08:23;19.20;82.77
64198;SHT31;50512;53.666;9.700;2022-08-03T02:10:50;19.20;82.63
64198;SHT31;50512;53.666;9.700;2022-08-03T02:13:18;19.21;82.58
64198;SHT31;50512;53.666;9.700;2022-08-03T02:15:45;19.20;82.46
64198;SHT31;50512;53.666;9.700;2022-08-03T02:18:12;19.16;82.61
64198;SHT31;50512;53.666;9.700;2022-08-03T02:20:42;19.17;82.64
64198;SHT31;50512;53.666;9.700;2022-08-03T02:23:08;19.20;82.43
64198;SHT31;50512;53.666;9.700;2022-08-03T02:25:44;19.20;82.18
64198;SHT31;50512;53.666;9.700;2022-08-03T02:28:15;19.18;82.36
64198;SHT31;50512;53.666;9.700;2022-08-03T02:30:42;19.20;82.37
64198;SHT31;50512;53.666;9.700;2022-08-03T02:33:13;19.13;82.46
64198;SHT31;50512;53.666;9.700;2022-08-03T02:35:42;19.03;82.78
64198;SHT31;50512;53.666;9.700;2022-08-03T02:38:10;19.06;82.78
64198;SHT31;50512;53.666;9.700;2022-08-03T02:40:38;19.02;82.68
64198;SHT31;50512;53.666;9.700;2022-08-03T02:43:08;18.99;82.85
64198;SHT31;50512;53.666;9.700;2022-08-03T02:45:35;18.97;83.03
64198;SHT31;50512;53.666;9.700;2022-08-03T02:48:07;18.87;84.08
64198;SHT31;50512;53.666;9.700;2022-08-03T02:50:33;18.79;85.09
64198;SHT31;50512;53.666;9.700;2022-08-03T02:53:02;18.72;85.76
64198;SHT31;50512;53.666;9.700;2022-08-03T02:55:28;18.76;85.52
64198;SHT31;50512;53.666;9.700;2022-08-03T02:57:56;18.66;85.45
64198;SHT31;50512;53.666;9.700;2022-08-03T03:00:22;18.66;85.60
64198;SHT31;50512;53.666;9.700;2022-08-03T03:02:48;18.58;85.44
64198;SHT31;50512;53.666;9.700;2022-08-03T03:05:15;18.49;85.86
64198;SHT31;50512;53.666;9.700;2022-08-03T03:07:41;18.52;85.71
64198;SHT31;50512;53.666;9.700;2022-08-03T03:10:09;18.51;85.84
64198;SHT31;50512;53.666;9.700;2022-08-03T03:12:36;18.47;85.78
64198;SHT31;50512;53.666;9.700;2022-08-03T03:15:04;18.45;85.91
64198;SHT31;50512;53.666;9.700;2022-08-03T03:17:30;18.40;86.08
64198;SHT31;50512;53.666;9.700;2022-08-03T03:19:58;18.32;86.17
64198;SHT31;50512;53.666;9.700;2022-08-03T03:22:23;18.34;85.99
64198;SHT31;50512;53.666;9.700;2022-08-03T03:24:50;18.30;86.02
64198;SHT31;50512;53.666;9.700;2022-08-03T03:27:17;18.25;86.26
64198;SHT31;50512;53.666;9.700;2022-08-03T03:29:43;18.24;86.33
64198;SHT31;50512;53.666;9.700;2022-08-03T03:32:09;18.21;86.26
64198;SHT31;50512;53.666;9.700;2022-08-03T03:34:35;18.14;86.77
64198;SHT31;50512;53.666;9.700;2022-08-03T03:37:01;18.10;87.09
64198;SHT31;50512;53.666;9.700;2022-08-03T03:39:26;18.10;87.18
64198;SHT31;50512;53.666;9.700;2022-08-03T03:41:52;18.13;87.22
64198;SHT31;50512;53.666;9.700;2022-08-03T03:44:19;18.10;87.40
64198;SHT31;50512;53.666;9.700;2022-08-03T03:46:44;18.18;86.94
64198;SHT31;50512;53.666;9.700;2022-08-03T03:49:10;18.20;86.75
64198;SHT31;50512;53.666;9.700;2022-08-03T03:51:35;18.23;86.42
64198;SHT31;50512;53.666;9.700;2022-08-03T03:54:02;18.25;86.14
64198;SHT31;50512;53.666;9.700;2022-08-03T03:56:27;18.24;86.55
64198;SHT31;50512;53.666;9.700;2022-08-03T03:58:53;18.25;86.60
64198;SHT31;50512;53.666;9.700;2022-08-03T04:01:20;18.35;86.41
64198;SHT31;50512;53.666;9.700;2022-08-03T04:03:46;18.25;86.54
64198;SHT31;50512;53.666;9.700;2022-08-03T04:06:11;18.31;86.39
64198;SHT31;50512;53.666;9.700;2022-08-03T04:08:37;18.31;86.60
64198;SHT31;50512;53.666;9.700;2022-08-03T04:11:10;18.28;86.72
64198;SHT31;50512;53.666;9.700;2022-08-03T04:13:38;18.27;86.69
64198;SHT31;50512;53.666;9.700;2022-08-03T04:16:05;18.27;86.83
64198;SHT31;50512;53.666;9.700;2022-08-03T04:18:33;18.28;86.65
64198;SHT31;50512;53.666;9.700;2022-08-03T04:21:04;18.35;86.46
64198;SHT31;50512;53.666;9.700;2022-08-03T04:23:32;18.44;86.32
64198;SHT31;50512;53.666;9.700;2022-08-03T04:26:00;18.49;86.13
64198;SHT31;50512;53.666;9.700;2022-08-03T04:28:26;18.51;85.99
64198;SHT31;50512;53.666;9.700;2022-08-03T04:30:53;18.56;85.51
64198;SHT31;50512;53.666;9.700;2022-08-03T04:33:21;18.59;85.71
64198;SHT31;50512;53.666;9.700;2022-08-03T04:35:48;18.66;85.33
64198;SHT31;50512;53.666;9.700;2022-08-03T04:38:17;18.65;85.35
64198;SHT31;50512;53.666;9.700;2022-08-03T04:40:45;18.68;85.20
64198;SHT31;50512;53.666;9.700;2022-08-03T04:43:12;18.73;85.17
64198;SHT31;50512;53.666;9.700;2022-08-03T04:45:39;18.80;85.21
64198;SHT31;50512;53.666;9.700;2022-08-03T04:48:06;18.83;84.86
64198;SHT31;50512;53.666;9.700;2022-08-03T04:50:32;18.90;84.89
64198;SHT31;50512;53.666;9.700;2022-08-03T04:52:59;18.92;84.58
64198;SHT31;50512;53.666;9.700;2022-08-03T04:55:25;18.97;84.64
64198;SHT31;50512;53.666;9.700;2022-08-03T04:57:51;19.02;84.54
64198;SHT31;50512;53.666;9.700;2022-08-03T05:00:17;19.03;84.47
64198;SHT31;50512;53.666;9.700;2022-08-03T05:02:43;19.11;84.30
64198;SHT31;50512;53.666;9.700;2022-08-03T05:05:08;19.10;84.36
64198;SHT31;50512;53.666;9.700;2022-08-03T05:07:34;19.20;84.00
64198;SHT31;50512;53.666;9.700;2022-08-03T05:10:01;19.28;83.88
64198;SHT31;50512;53.666;9.700;2022-08-03T05:12:26;19.38;83.72
64198;SHT31;50512;53.666;9.700;2022-08-03T05:14:51;19.48;83.65
64198;SHT31;50512;53.666;9.700;2022-08-03T05:17:17;19.54;83.67
64198;SHT31;50512;53.666;9.700;2022-08-03T05:19:42;19.59;83.58
64198;SHT31;50512;53.666;9.700;2022-08-03T05:22:08;19.72;82.95
64198;SHT31;50512;53.666;9.700;2022-08-03T05:24:33;19.83;82.80
64198;SHT31;50512;53.666;9.700;2022-08-03T05:27:00;19.96;82.57
64198;SHT31;50512;53.666;9.700;2022-08-03T05:29:25;20.05;82.21
64198;SHT31;50512;53.666;9.700;2022-08-03T05:31:51;20.23;81.63
64198;SHT31;50512;53.666;9.700;2022-08-03T05:34:16;20.27;81.57
64198;SHT31;50512;53.666;9.700;2022-08-03T05:36:42;20.35;81.12
64198;SHT31;50512;53.666;9.700;2022-08-03T05:39:07;20.40;80.07
64198;SHT31;50512;53.666;9.700;2022-08-03T05:41:33;20.54;80.14
64198;SHT31;50512;53.666;9.700;2022-08-03T05:43:59;20.59;80.20
64198;SHT31;50512;53.666;9.700;2022-08-03T05:46:25;20.71;79.71
64198;SHT31;50512;53.666;9.700;2022-08-03T05:48:50;20.75;79.45
64198;SHT31;50512;53.666;9.700;2022-08-03T05:51:16;20.83;80.00
64198;SHT31;50512;53.666;9.700;2022-08-03T05:53:42;20.90;79.19
64198;SHT31;50512;53.666;9.700;2022-08-03T05:56:08;21.00;79.54
64198;SHT31;50512;53.666;9.700;2022-08-03T05:58:34;21.11;78.63
64198;SHT31;50512;53.666;9.700;2022-08-03T06:01:00;21.22;77.99
64198;SHT31;50512;53.666;9.700;2022-08-03T06:03:26;21.31;77.52
64198;SHT31;50512;53.666;9.700;2022-08-03T06:05:53;21.43;77.29
64198;SHT31;50512;53.666;9.700;2022-08-03T06:08:18;21.53;76.84
64198;SHT31;50512;53.666;9.700;2022-08-03T06:10:44;21.59;77.71
64198;SHT31;50512;53.666;9.700;2022-08-03T06:13:09;21.72;76.87
64198;SHT31;50512;53.666;9.700;2022-08-03T06:15:35;21.85;75.75
64198;SHT31;50512;53.666;9.700;2022-08-03T06:18:02;21.99;75.60
64198;SHT31;50512;53.666;9.700;2022-08-03T06:20:27;22.12;74.61
64198;SHT31;50512;53.666;9.700;2022-08-03T06:22:53;22.21;74.21
64198;SHT31;50512;53.666;9.700;2022-08-03T06:25:18;22.34;72.70
64198;SHT31;50512;53.666;9.700;2022-08-03T06:27:44;22.45;72.24
64198;SHT31;50512;53.666;9.700;2022-08-03T06:30:11;22.58;71.18
64198;SHT31;50512;53.666;9.700;2022-08-03T06:32:37;22.64;71.42
64198;SHT31;50512;53.666;9.700;2022-08-03T06:35:05;22.81;71.39
64198;SHT31;50512;53.666;9.700;2022-08-03T06:37:30;22.91;71.33
64198;SHT31;50512;53.666;9.700;2022-08-03T06:39:56;22.96;70.68
64198;SHT31;50512;53.666;9.700;2022-08-03T06:42:21;23.12;70.61
64198;SHT31;50512;53.666;9.700;2022-08-03T06:44:47;23.23;69.49
64198;SHT31;50512;53.666;9.700;2022-08-03T06:47:12;23.26;68.82
64198;SHT31;50512;53.666;9.700;2022-08-03T06:49:38;23.39;68.76
64198;SHT31;50512;53.666;9.700;2022-08-03T06:52:04;23.43;68.63
64198;SHT31;50512;53.666;9.700;2022-08-03T06:54:30;23.55;70.11
64198;SHT31;50512;53.666;9.700;2022-08-03T06:56:55;23.60;68.69
64198;SHT31;50512;53.666;9.700;2022-08-03T06:59:21;23.79;69.44
64198;SHT31;50512;53.666;9.700;2022-08-03T07:01:46;23.81;68.96
64198;SHT31;50512;53.666;9.700;2022-08-03T07:04:12;23.95;69.08
64198;SHT31;50512;53.666;9.700;2022-08-03T07:06:38;23.92;68.96
64198;SHT31;50512;53.666;9.700;2022-08-03T07:09:05;24.10;68.03
64198;SHT31;50512;53.666;9.700;2022-08-03T07:11:30;24.16;68.08
64198;SHT31;50512;53.666;9.700;2022-08-03T07:13:56;24.16;68.30
64198;SHT31;50512;53.666;9.700;2022-08-03T07:16:21;24.43;67.07
64198;SHT31;50512;53.666;9.700;2022-08-03T07:18:47;24.54;67.13
64198;SHT31;50512;53.666;9.700;2022-08-03T07:21:13;24.67;66.71
64198;SHT31;50512;53.666;9.700;2022-08-03T07:23:38;24.80;65.73
64198;SHT31;50512;53.666;9.700;2022-08-03T07:26:05;25.01;66.52
64198;SHT31;50512;53.666;9.700;2022-08-03T07:28:31;25.18;64.67
64198;SHT31;50512;53.666;9.700;2022-08-03T07:30:57;25.11;65.26
64198;SHT31;50512;53.666;9.700;2022-08-03T07:33:22;25.04;65.67
64198;SHT31;50512;53.666;9.700;2022-08-03T07:35:48;24.96;66.14
64198;SHT31;50512;53.666;9.700;2022-08-03T07:38:13;25.14;65.10
64198;SHT31;50512;53.666;9.700;2022-08-03T07:40:39;25.22;65.09
64198;SHT31;50512;53.666;9.700;2022-08-03T07:43:06;25.35;64.26
64198;SHT31;50512;53.666;9.700;2022-08-03T07:45:31;25.42;65.41
64198;SHT31;50512;53.666;9.700;2022-08-03T07:47:57;25.64;63.87
64198;SHT31;50512;53.666;9.700;2022-08-03T07:50:24;25.71;64.28
64198;SHT31;50512;53.666;9.700;2022-08-03T07:52:50;26.31;64.30
64198;SHT31;50512;53.666;9.700;2022-08-03T07:55:17;27.31;59.57
64198;SHT31;50512;53.666;9.700;2022-08-03T07:57:43;28.10;56.92
64198;SHT31;50512;53.666;9.700;2022-08-03T08:00:14;28.56;56.61
64198;SHT31;50512;53.666;9.700;2022-08-03T08:02:41;28.99;54.55
64198;SHT31;50512;53.666;9.700;2022-08-03T08:05:06;29.30;52.09
64198;SHT31;50512;53.666;9.700;2022-08-03T08:07:32;29.80;51.94
64198;SHT31;50512;53.666;9.700;2022-08-03T08:09:57;30.45;50.80
64198;SHT31;50512;53.666;9.700;2022-08-03T08:12:23;31.09;50.02
64198;SHT31;50512;53.666;9.700;2022-08-03T08:14:48;31.50;49.55
64198;SHT31;50512;53.666;9.700;2022-08-03T08:17:15;31.81;47.51
64198;SHT31;50512;53.666;9.700;2022-08-03T08:19:41;31.93;48.68
64198;SHT31;50512;53.666;9.700;2022-08-03T08:22:06;32.09;47.27
64198;SHT31;50512;53.666;9.700;2022-08-03T08:24:31;32.02;46.44
64198;SHT31;50512;53.666;9.700;2022-08-03T08:26:57;31.89;46.46
64198;SHT31;50512;53.666;9.700;2022-08-03T08:29:22;31.35;48.36
64198;SHT31;50512;53.666;9.700;2022-08-03T08:31:48;31.14;48.21
64198;SHT31;50512;53.666;9.700;2022-08-03T08:34:15;30.78;49.90
64198;SHT31;50512;53.666;9.700;2022-08-03T08:36:40;30.28;49.80
64198;SHT31;50512;53.666;9.700;2022-08-03T08:39:06;30.57;50.73
64198;SHT31;50512;53.666;9.700;2022-08-03T08:41:31;30.44;50.50
64198;SHT31;50512;53.666;9.700;2022-08-03T08:43:57;30.61;51.74
64198;SHT31;50512;53.666;9.700;2022-08-03T08:46:22;30.57;49.29
64198;SHT31;50512;53.666;9.700;2022-08-03T08:48:48;30.87;50.20
64198;SHT31;50512;53.666;9.700;2022-08-03T08:51:19;30.79;50.07
64198;SHT31;50512;53.666;9.700;2022-08-03T08:53:47;30.72;50.20
64198;SHT31;50512;53.666;9.700;2022-08-03T08:56:13;30.96;50.47
64198;SHT31;50512;53.666;9.700;2022-08-03T08:58:45;31.13;48.55
64198;SHT31;50512;53.666;9.700;2022-08-03T09:01:11;31.09;47.97
64198;SHT31;50512;53.666;9.700;2022-08-03T09:03:36;31.34;48.77
64198;SHT31;50512;53.666;9.700;2022-08-03T09:06:04;31.68;48.42
64198;SHT31;50512;53.666;9.700;2022-08-03T09:08:31;32.20;47.23
64198;SHT31;50512;53.666;9.700;2022-08-03T09:10:57;31.68;46.66
64198;SHT31;50512;53.666;9.700;2022-08-03T09:13:22;32.24;46.78
64198;SHT31;50512;53.666;9.700;2022-08-03T09:15:53;32.16;47.33
64198;SHT31;50512;53.666;9.700;2022-08-03T09:18:32;31.78;46.67
64198;SHT31;50512;53.666;9.700;2022-08-03T09:21:11;31.90;47.15
64198;SHT31;50512;53.666;9.700;2022-08-03T09:23:44;31.95;47.07
64198;SHT31;50512;53.666;9.700;2022-08-03T09:26:10;32.34;47.20
64198;SHT31;50512;53.666;9.700;2022-08-03T09:28:36;32.61;45.72
64198;SHT31;50512;53.666;9.700;2022-08-03T09:31:01;32.17;46.06
64198;SHT31;50512;53.666;9.700;2022-08-03T09:33:27;31.84;48.19
64198;SHT31;50512;53.666;9.700;2022-08-03T09:35:52;31.45;48.64
64198;SHT31;50512;53.666;9.700;2022-08-03T09:38:19;31.50;49.13
64198;SHT31;50512;53.666;9.700;2022-08-03T09:40:47;31.40;48.83
64198;SHT31;50512;53.666;9.700;2022-08-03T09:43:12;31.65;48.78
64198;SHT31;50512;53.666;9.700;2022-08-03T09:45:38;31.38;50.31
64198;SHT31;50512;53.666;9.700;2022-08-03T09:48:21;31.58;50.05
64198;SHT31;50512;53.666;9.700;2022-08-03T09:50:47;31.86;50.45
64198;SHT31;50512;53.666;9.700;2022-08-03T09:53:13;31.58;49.49
64198;SHT31;50512;53.666;9.700;2022-08-03T09:55:50;31.74;51.10
64198;SHT31;50512;53.666;9.700;2022-08-03T09:58:16;31.78;50.70
64198;SHT31;50512;53.666;9.700;2022-08-03T10:00:52;31.24;50.77
64198;SHT31;50512;53.666;9.700;2022-08-03T10:03:18;30.82;54.05
64198;SHT31;50512;53.666;9.700;2022-08-03T10:05:43;30.32;53.04
64198;SHT31;50512;53.666;9.700;2022-08-03T10:08:14;30.13;53.88
64198;SHT31;50512;53.666;9.700;2022-08-03T10:10:41;29.85;54.19
64198;SHT31;50512;53.666;9.700;2022-08-03T10:13:09;30.03;55.55
64198;SHT31;50512;53.666;9.700;2022-08-03T10:15:35;29.97;52.91
64198;SHT31;50512;53.666;9.700;2022-08-03T10:18:01;30.28;54.45
64198;SHT31;50512;53.666;9.700;2022-08-03T10:20:26;30.37;53.97
64198;SHT31;50512;53.666;9.700;2022-08-03T10:22:52;30.35;53.56
64198;SHT31;50512;53.666;9.700;2022-08-03T10:25:18;30.09;53.97
64198;SHT31;50512;53.666;9.700;2022-08-03T10:27:46;30.07;53.03
64198;SHT31;50512;53.666;9.700;2022-08-03T10:30:13;29.94;54.08
64198;SHT31;50512;53.666;9.700;2022-08-03T10:32:41;29.89;54.65
64198;SHT31;50512;53.666;9.700;2022-08-03T10:35:10;29.80;53.58
64198;SHT31;50512;53.666;9.700;2022-08-03T10:37:40;30.06;55.16
64198;SHT31;50512;53.666;9.700;2022-08-03T10:40:07;30.06;54.78
64198;SHT31;50512;53.666;9.700;2022-08-03T10:42:34;30.07;55.26
64198;SHT31;50512;53.666;9.700;2022-08-03T10:45:04;30.04;53.53
64198;SHT31;50512;53.666;9.700;2022-08-03T10:47:33;29.62;53.48
64198;SHT31;50512;53.666;9.700;2022-08-03T10:49:59;29.62;53.86
64198;SHT31;50512;53.666;9.700;2022-08-03T10:52:26;29.66;55.27
64198;SHT31;50512;53.666;9.700;2022-08-03T10:54:52;29.70;54.65
64198;SHT31;50512;53.666;9.700;2022-08-03T10:57:48;29.94;53.61
64198;SHT31;50512;53.666;9.700;2022-08-03T11:00:15;30.35;54.73
64198;SHT31;50512;53.666;9.700;2022-08-03T11:05:37;30.31;51.88
64198;SHT31;50512;53.666;9.700;2022-08-03T11:11:02;30.28;53.18
64198;SHT31;50512;53.666;9.700;2022-08-03T11:13:56;30.62;55.31
64198;SHT31;50512;53.666;9.700;2022-08-03T11:16:22;30.66;51.08
64198;SHT31;50512;53.666;9.700;2022-08-03T11:18:57;30.90;52.79
64198;SHT31;50512;53.666;9.700;2022-08-03T11:21:51;30.62;53.84
64198;SHT31;50512;53.666;9.700;2022-08-03T11:27:16;30.34;52.25
64198;SHT31;50512;53.666;9.700;2022-08-03T11:29:53;30.28;53.36
64198;SHT31;50512;53.666;9.700;2022-08-03T11:35:33;30.16;53.63
64198;SHT31;50512;53.666;9.700;2022-08-03T11:38:10;30.40;53.28
64198;SHT31;50512;53.666;9.700;2022-08-03T11:40:38;30.58;52.80
64198;SHT31;50512;53.666;9.700;2022-08-03T11:43:05;30.75;51.92
64198;SHT31;50512;53.666;9.700;2022-08-03T11:45:31;30.61;52.89
64198;SHT31;50512;53.666;9.700;2022-08-03T11:47:59;30.27;53.13
64198;SHT31;50512;53.666;9.700;2022-08-03T11:50:34;30.31;53.28
64198;SHT31;50512;53.666;9.700;2022-08-03T11:53:00;30.04;53.11
64198;SHT31;50512;53.666;9.700;2022-08-03T11:55:29;30.31;54.51
64198;SHT31;50512;53.666;9.700;2022-08-03T11:57:57;30.44;52.76
64198;SHT31;50512;53.666;9.700;2022-08-03T12:00:25;30.59;49.57
64198;SHT31;50512;53.666;9.700;2022-08-03T12:03:01;30.68;49.60
64198;SHT31;50512;53.666;9.700;2022-08-03T12:05:39;30.74;50.31
64198;SHT31;50512;53.666;9.700;2022-08-03T12:08:05;30.80;49.81
64198;SHT31;50512;53.666;9.700;2022-08-03T12:10:32;30.72;50.32
64198;SHT31;50512;53.666;9.700;2022-08-03T12:12:59;30.75;49.93
64198;SHT31;50512;53.666;9.700;2022-08-03T12:15:25;30.86;52.48
64198;SHT31;50512;53.666;9.700;2022-08-03T12:17:51;30.85;49.76
64198;SHT31;50512;53.666;9.700;2022-08-03T12:20:20;30.90;50.90
64198;SHT31;50512;53.666;9.700;2022-08-03T12:22:46;31.06;50.94
64198;SHT31;50512;53.666;9.700;2022-08-03T12:25:20;30.90;50.39
64198;SHT31;50512;53.666;9.700;2022-08-03T12:27:47;30.99;50.38
64198;SHT31;50512;53.666;9.700;2022-08-03T12:30:14;31.00;49.07
64198;SHT31;50512;53.666;9.700;2022-08-03T12:32:42;30.92;50.32
64198;SHT31;50512;53.666;9.700;2022-08-03T12:35:08;30.96;50.33
64198;SHT31;50512;53.666;9.700;2022-08-03T12:37:33;31.16;50.97
64198;SHT31;50512;53.666;9.700;2022-08-03T12:40:00;31.19;49.67
64198;SHT31;50512;53.666;9.700;2022-08-03T12:42:29;31.29;50.96
64198;SHT31;50512;53.666;9.700;2022-08-03T12:44:56;31.27;48.47
64198;SHT31;50512;53.666;9.700;2022-08-03T12:47:21;31.33;49.22
64198;SHT31;50512;53.666;9.700;2022-08-03T12:49:48;31.13;50.57
64198;SHT31;50512;53.666;9.700;2022-08-03T12:52:14;31.35;51.05
64198;SHT31;50512;53.666;9.700;2022-08-03T12:54:40;31.51;50.65
64198;SHT31;50512;53.666;9.700;2022-08-03T12:57:06;31.54;49.21
64198;SHT31;50512;53.666;9.700;2022-08-03T12:59:34;31.64;49.32
64198;SHT31;50512;53.666;9.700;2022-08-03T13:02:01;31.71;48.99
64198;SHT31;50512;53.666;9.700;2022-08-03T13:04:28;31.58;46.56
64198;SHT31;50512;53.666;9.700;2022-08-03T13:06:57;31.59;47.54
64198;SHT31;50512;53.666;9.700;2022-08-03T13:09:23;31.68;48.25
64198;SHT31;50512;53.666;9.700;2022-08-03T13:12:03;31.57;48.43
64198;SHT31;50512;53.666;9.700;2022-08-03T13:14:29;31.47;47.96
64198;SHT31;50512;53.666;9.700;2022-08-03T13:16:54;31.68;47.50
64198;SHT31;50512;53.666;9.700;2022-08-03T13:19:21;31.61;46.54
64198;SHT31;50512;53.666;9.700;2022-08-03T13:21:47;31.78;49.33
64198;SHT31;50512;53.666;9.700;2022-08-03T13:24:12;31.64;49.69
64198;SHT31;50512;53.666;9.700;2022-08-03T13:26:38;31.84;48.57
64198;SHT31;50512;53.666;9.700;2022-08-03T13:29:03;31.90;47.94
64198;SHT31;50512;53.666;9.700;2022-08-03T13:31:29;32.02;49.62
64198;SHT31;50512;53.666;9.700;2022-08-03T13:33:54;31.99;47.64
64198;SHT31;50512;53.666;9.700;2022-08-03T13:36:21;32.01;47.62
64198;SHT31;50512;53.666;9.700;2022-08-03T13:38:46;31.62;47.55
64198;SHT31;50512;53.666;9.700;2022-08-03T13:41:12;31.79;46.80
64198;SHT31;50512;53.666;9.700;2022-08-03T13:43:37;31.88;46.79
64198;SHT31;50512;53.666;9.700;2022-08-03T13:46:03;31.97;47.72
64198;SHT31;50512;53.666;9.700;2022-08-03T13:48:28;32.08;47.62
64198;SHT31;50512;53.666;9.700;2022-08-03T13:50:53;32.22;49.10
64198;SHT31;50512;53.666;9.700;2022-08-03T13:53:20;32.34;46.11
64198;SHT31;50512;53.666;9.700;2022-08-03T13:55:46;32.30;45.68
64198;SHT31;50512;53.666;9.700;2022-08-03T13:58:11;32.16;48.03
64198;SHT31;50512;53.666;9.700;2022-08-03T14:00:37;32.09;46.81
64198;SHT31;50512;53.666;9.700;2022-08-03T14:03:03;31.89;47.18
64198;SHT31;50512;53.666;9.700;2022-08-03T14:05:28;31.96;47.80
64198;SHT31;50512;53.666;9.700;2022-08-03T14:07:54;32.03;48.65
64198;SHT31;50512;53.666;9.700;2022-08-03T14:10:21;31.97;47.48
64198;SHT31;50512;53.666;9.700;2022-08-03T14:12:46;31.89;47.00
64198;SHT31;50512;53.666;9.700;2022-08-03T14:15:12;31.55;48.31
64198;SHT31;50512;53.666;9.700;2022-08-03T14:17:38;31.26;49.14
64198;SHT31;50512;53.666;9.700;2022-08-03T14:20:04;31.34;50.05
64198;SHT31;50512;53.666;9.700;2022-08-03T14:22:30;31.34;49.96
64198;SHT31;50512;53.666;9.700;2022-08-03T14:24:55;31.35;49.98
64198;SHT31;50512;53.666;9.700;2022-08-03T14:27:22;31.33;48.83
64198;SHT31;50512;53.666;9.700;2022-08-03T14:29:47;31.34;49.23
64198;SHT31;50512;53.666;9.700;2022-08-03T14:32:13;31.42;49.25
64198;SHT31;50512;53.666;9.700;2022-08-03T14:34:38;31.40;48.54
64198;SHT31;50512;53.666;9.700;2022-08-03T14:37:04;31.35;48.05
64198;SHT31;50512;53.666;9.700;2022-08-03T14:39:29;31.38;48.49
64198;SHT31;50512;53.666;9.700;2022-08-03T14:41:55;31.52;48.86
64198;SHT31;50512;53.666;9.700;2022-08-03T14:44:22;31.57;48.00
64198;SHT31;50512;53.666;9.700;2022-08-03T14:46:47;31.47;49.13
64198;SHT31;50512;53.666;9.700;2022-08-03T14:49:13;31.47;48.68
64198;SHT31;50512;53.666;9.700;2022-08-03T14:51:38;31.51;48.33
64198;SHT31;50512;53.666;9.700;2022-08-03T14:54:04;31.34;48.27
64198;SHT31;50512;53.666;9.700;2022-08-03T14:56:29;31.37;48.48
64198;SHT31;50512;53.666;9.700;2022-08-03T14:58:54;31.47;48.53
64198;SHT31;50512;53.666;9.700;2022-08-03T15:01:21;31.50;47.96
64198;SHT31;50512;53.666;9.700;2022-08-03T15:03:47;31.65;48.53
64198;SHT31;50512;53.666;9.700;2022-08-03T15:06:12;31.71;47.88
64198;SHT31;50512;53.666;9.700;2022-08-03T15:08:38;31.76;48.73
64198;SHT31;50512;53.666;9.700;2022-08-03T15:11:03;31.58;47.30
64198;SHT31;50512;53.666;9.700;2022-08-03T15:13:29;31.47;48.84
64198;SHT31;50512;53.666;9.700;2022-08-03T15:15:54;31.19;49.35
64198;SHT31;50512;53.666;9.700;2022-08-03T15:18:21;31.02;50.26
64198;SHT31;50512;53.666;9.700;2022-08-03T15:20:46;30.86;50.87
64198;SHT31;50512;53.666;9.700;2022-08-03T15:23:12;30.78;50.76
64198;SHT31;50512;53.666;9.700;2022-08-03T15:25:38;30.74;49.13
64198;SHT31;50512;53.666;9.700;2022-08-03T15:28:04;30.74;49.97
64198;SHT31;50512;53.666;9.700;2022-08-03T15:30:29;30.86;49.92
64198;SHT31;50512;53.666;9.700;2022-08-03T15:32:54;31.04;50.35
64198;SHT31;50512;53.666;9.700;2022-08-03T15:35:21;31.13;49.42
64198;SHT31;50512;53.666;9.700;2022-08-03T15:37:47;31.12;48.97
64198;SHT31;50512;53.666;9.700;2022-08-03T15:40:12;31.10;48.86
64198;SHT31;50512;53.666;9.700;2022-08-03T15:42:38;31.14;50.84